sensor_id;sensor_type;location;lat;lon;timestamp;P1;durP1;ratioP1;P2;durP2;ratioP2
10335;SDS011;5213;53.548;9.930;2022-11-15T00:01:39;41.83;;;26.15;;
10335;SDS011;5213;53.548;9.930;2022-11-15T00:04:05;41.08;;;25.27;;
10335;SDS011;5213;53.548;9.930;2022-11-15T00:06:32;40.30;;;25.38;;
10335;SDS011;5213;53.548;9.930;2022-11-15T00:08:58;37.83;;;26.00;;
10335;SDS011;5213;53.548;9.930;2022-11-15T00:11:24;39.40;;;25.40;;
10335;SDS011;5213;53.548;9.930;2022-11-15T00:13:50;38.50;;;25.42;;
10335;SDS011;5213;53.548;9.930;2022-11-15T00:16:16;39.72;;;26.27;;
10335;SDS011;5213;53.548;9.930;2022-11-15T00:18:42;40.08;;;25.38;;
10335;SDS011;5213;53.548;9.930;2022-11-15T00:21:12;42.83;;;26.90;;
10335;SDS011;5213;53.548;9.930;2022-11-15T00:23:38;50.92;;;27.73;;
10335;SDS011;5213;53.548;9.930;2022-11-15T00:26:04;40.83;;;26.58;;
10335;SDS011;5213;53.548;9.930;2022-11-15T00:28:30;39.25;;;25.90;;
10335;SDS011;5213;53.548;9.930;2022-11-15T00:31:03;38.65;;;24.90;;
10335;SDS011;5213;53.548;9.930;2022-11-15T00:33:29;37.80;;;25.77;;
10335;SDS011;5213;53.548;9.930;2022-11-15T00:35:59;35.25;;;25.10;;
10335;SDS011;5213;53.548;9.930;2022-11-15T00:38:29;34.00;;;23.33;;
10335;SDS011;5213;53.548;9.930;2022-11-15T00:40:56;36.78;;;24.63;;
10335;SDS011;5213;53.548;9.930;2022-11-15T00:43:22;34.35;;;23.75;;
10335;SDS011;5213;53.548;9.930;2022-11-15T00:45:47;31.98;;;23.52;;
10335;SDS011;5213;53.548;9.930;2022-11-15T00:48:13;30.80;;;22.40;;
10335;SDS011;5213;53.548;9.930;2022-11-15T00:50:39;33.38;;;22.77;;
10335;SDS011;5213;53.548;9.930;2022-11-15T00:53:05;31.77;;;23.35;;
10335;SDS011;5213;53.548;9.930;2022-11-15T00:55:31;33.58;;;23.38;;
10335;SDS011;5213;53.548;9.930;2022-11-15T00:57:57;36.33;;;24.27;;
10335;SDS011;5213;53.548;9.930;2022-11-15T01:00:23;33.50;;;23.63;;
10335;SDS011;5213;53.548;9.930;2022-11-15T01:02:49;32.70;;;23.55;;
10335;SDS011;5213;53.548;9.930;2022-11-15T01:05:15;32.42;;;23.15;;
10335;SDS011;5213;53.548;9.930;2022-11-15T01:07:41;33.72;;;22.27;;
10335;SDS011;5213;53.548;9.930;2022-11-15T01:10:07;32.25;;;23.25;;
10335;SDS011;5213;53.548;9.930;2022-11-15T01:12:33;32.05;;;22.73;;
10335;SDS011;5213;53.548;9.930;2022-11-15T01:14:59;31.58;;;22.48;;
10335;SDS011;5213;53.548;9.930;2022-11-15T01:17:25;34.33;;;23.02;;
10335;SDS011;5213;53.548;9.930;2022-11-15T01:19:51;33.80;;;23.05;;
10335;SDS011;5213;53.548;9.930;2022-11-15T01:22:17;32.97;;;22.67;;
10335;SDS011;5213;53.548;9.930;2022-11-15T01:24:43;35.65;;;24.45;;
10335;SDS011;5213;53.548;9.930;2022-11-15T01:27:09;32.40;;;23.73;;
10335;SDS011;5213;53.548;9.930;2022-11-15T01:29:35;35.13;;;23.73;;
10335;SDS011;5213;53.548;9.930;2022-11-15T01:32:01;34.60;;;23.80;;
10335;SDS011;5213;53.548;9.930;2022-11-15T01:34:27;39.90;;;24.33;;
10335;SDS011;5213;53.548;9.930;2022-11-15T01:36:53;36.55;;;24.67;;
10335;SDS011;5213;53.548;9.930;2022-11-15T01:39:19;36.35;;;24.90;;
10335;SDS011;5213;53.548;9.930;2022-11-15T01:41:45;35.63;;;23.75;;
10335;SDS011;5213;53.548;9.930;2022-11-15T01:46:57;37.08;;;23.60;;
10335;SDS011;5213;53.548;9.930;2022-11-15T01:49:23;40.28;;;25.27;;
10335;SDS011;5213;53.548;9.930;2022-11-15T01:51:49;41.60;;;26.27;;
10335;SDS011;5213;53.548;9.930;2022-11-15T01:54:16;39.17;;;25.02;;
10335;SDS011;5213;53.548;9.930;2022-11-15T01:56:43;40.88;;;25.08;;
10335;SDS011;5213;53.548;9.930;2022-11-15T01:59:12;35.78;;;24.55;;
10335;SDS011;5213;53.548;9.930;2022-11-15T02:01:38;36.70;;;24.15;;
10335;SDS011;5213;53.548;9.930;2022-11-15T02:04:06;41.25;;;26.23;;
10335;SDS011;5213;53.548;9.930;2022-11-15T02:06:34;38.45;;;24.45;;
10335;SDS011;5213;53.548;9.930;2022-11-15T02:09:01;40.58;;;26.38;;
10335;SDS011;5213;53.548;9.930;2022-11-15T02:11:27;39.50;;;26.52;;
10335;SDS011;5213;53.548;9.930;2022-11-15T02:13:54;42.10;;;26.63;;
10335;SDS011;5213;53.548;9.930;2022-11-15T02:16:27;43.33;;;25.80;;
10335;SDS011;5213;53.548;9.930;2022-11-15T02:21:36;46.88;;;27.05;;
10335;SDS011;5213;53.548;9.930;2022-11-15T02:24:20;41.75;;;25.88;;
10335;SDS011;5213;53.548;9.930;2022-11-15T02:30:00;43.13;;;25.40;;
10335;SDS011;5213;53.548;9.930;2022-11-15T02:39:59;44.50;;;26.38;;
10335;SDS011;5213;53.548;9.930;2022-11-15T02:42:28;41.58;;;26.40;;
10335;SDS011;5213;53.548;9.930;2022-11-15T02:45:19;43.35;;;26.50;;
10335;SDS011;5213;53.548;9.930;2022-11-15T02:47:47;45.80;;;26.42;;
10335;SDS011;5213;53.548;9.930;2022-11-15T02:50:16;44.50;;;27.17;;
10335;SDS011;5213;53.548;9.930;2022-11-15T02:52:46;44.88;;;25.83;;
10335;SDS011;5213;53.548;9.930;2022-11-15T02:55:25;43.33;;;26.67;;
10335;SDS011;5213;53.548;9.930;2022-11-15T02:57:52;44.80;;;26.13;;
10335;SDS011;5213;53.548;9.930;2022-11-15T03:00:21;43.30;;;25.95;;
10335;SDS011;5213;53.548;9.930;2022-11-15T03:03:00;45.80;;;26.70;;
10335;SDS011;5213;53.548;9.930;2022-11-15T03:05:34;43.97;;;26.10;;
10335;SDS011;5213;53.548;9.930;2022-11-15T03:08:06;44.20;;;26.60;;
10335;SDS011;5213;53.548;9.930;2022-11-15T03:13:16;41.10;;;25.48;;
10335;SDS011;5213;53.548;9.930;2022-11-15T03:15:48;40.35;;;25.30;;
10335;SDS011;5213;53.548;9.930;2022-11-15T03:18:19;40.83;;;25.08;;
10335;SDS011;5213;53.548;9.930;2022-11-15T03:20:46;43.20;;;25.70;;
10335;SDS011;5213;53.548;9.930;2022-11-15T03:23:12;42.60;;;25.35;;
10335;SDS011;5213;53.548;9.930;2022-11-15T03:25:44;42.33;;;25.80;;
10335;SDS011;5213;53.548;9.930;2022-11-15T03:28:12;45.28;;;25.35;;
10335;SDS011;5213;53.548;9.930;2022-11-15T03:30:39;44.03;;;25.70;;
10335;SDS011;5213;53.548;9.930;2022-11-15T03:33:06;40.97;;;24.65;;
10335;SDS011;5213;53.548;9.930;2022-11-15T03:35:33;39.33;;;24.55;;
10335;SDS011;5213;53.548;9.930;2022-11-15T03:40:39;40.88;;;23.92;;
10335;SDS011;5213;53.548;9.930;2022-11-15T03:43:11;41.17;;;24.13;;
10335;SDS011;5213;53.548;9.930;2022-11-15T03:45:46;45.30;;;25.15;;
10335;SDS011;5213;53.548;9.930;2022-11-15T03:48:13;42.38;;;24.70;;
10335;SDS011;5213;53.548;9.930;2022-11-15T03:50:41;40.30;;;24.23;;
10335;SDS011;5213;53.548;9.930;2022-11-15T03:53:07;41.97;;;24.75;;
10335;SDS011;5213;53.548;9.930;2022-11-15T03:55:33;45.75;;;25.20;;
10335;SDS011;5213;53.548;9.930;2022-11-15T03:57:59;42.67;;;23.95;;
10335;SDS011;5213;53.548;9.930;2022-11-15T04:00:26;42.58;;;24.40;;
10335;SDS011;5213;53.548;9.930;2022-11-15T04:02:52;43.88;;;24.88;;
10335;SDS011;5213;53.548;9.930;2022-11-15T04:05:18;40.15;;;24.08;;
10335;SDS011;5213;53.548;9.930;2022-11-15T04:07:44;42.50;;;24.25;;
10335;SDS011;5213;53.548;9.930;2022-11-15T04:10:11;44.70;;;25.80;;
10335;SDS011;5213;53.548;9.930;2022-11-15T04:12:38;42.58;;;25.50;;
10335;SDS011;5213;53.548;9.930;2022-11-15T04:15:13;42.90;;;25.33;;
10335;SDS011;5213;53.548;9.930;2022-11-15T04:17:40;41.42;;;24.85;;
10335;SDS011;5213;53.548;9.930;2022-11-15T04:20:08;40.63;;;24.65;;
10335;SDS011;5213;53.548;9.930;2022-11-15T04:22:56;42.45;;;25.40;;
10335;SDS011;5213;53.548;9.930;2022-11-15T04:25:41;37.78;;;23.95;;
10335;SDS011;5213;53.548;9.930;2022-11-15T04:28:08;40.88;;;23.52;;
10335;SDS011;5213;53.548;9.930;2022-11-15T04:30:34;40.97;;;23.40;;
10335;SDS011;5213;53.548;9.930;2022-11-15T04:33:00;37.83;;;24.70;;
10335;SDS011;5213;53.548;9.930;2022-11-15T04:35:26;31.85;;;21.75;;
10335;SDS011;5213;53.548;9.930;2022-11-15T04:37:52;33.88;;;22.85;;
10335;SDS011;5213;53.548;9.930;2022-11-15T04:40:18;32.45;;;21.63;;
10335;SDS011;5213;53.548;9.930;2022-11-15T04:42:44;32.38;;;22.00;;
10335;SDS011;5213;53.548;9.930;2022-11-15T04:45:10;30.00;;;21.35;;
10335;SDS011;5213;53.548;9.930;2022-11-15T04:47:36;29.70;;;21.58;;
10335;SDS011;5213;53.548;9.930;2022-11-15T04:50:02;28.05;;;19.65;;
10335;SDS011;5213;53.548;9.930;2022-11-15T04:52:29;27.38;;;19.15;;
10335;SDS011;5213;53.548;9.930;2022-11-15T04:54:54;25.00;;;19.15;;
10335;SDS011;5213;53.548;9.930;2022-11-15T04:57:20;27.88;;;18.75;;
10335;SDS011;5213;53.548;9.930;2022-11-15T04:59:46;28.90;;;18.92;;
10335;SDS011;5213;53.548;9.930;2022-11-15T05:02:12;25.33;;;18.25;;
10335;SDS011;5213;53.548;9.930;2022-11-15T05:04:38;23.17;;;16.48;;
10335;SDS011;5213;53.548;9.930;2022-11-15T05:07:05;22.92;;;17.08;;
10335;SDS011;5213;53.548;9.930;2022-11-15T05:09:31;25.02;;;16.80;;
10335;SDS011;5213;53.548;9.930;2022-11-15T05:11:56;23.65;;;16.63;;
10335;SDS011;5213;53.548;9.930;2022-11-15T05:14:22;21.20;;;16.27;;
10335;SDS011;5213;53.548;9.930;2022-11-15T05:16:48;19.55;;;15.60;;
10335;SDS011;5213;53.548;9.930;2022-11-15T05:19:14;20.35;;;16.13;;
10335;SDS011;5213;53.548;9.930;2022-11-15T05:21:40;22.23;;;15.93;;
10335;SDS011;5213;53.548;9.930;2022-11-15T05:24:08;22.52;;;16.20;;
10335;SDS011;5213;53.548;9.930;2022-11-15T05:26:34;21.90;;;16.08;;
10335;SDS011;5213;53.548;9.930;2022-11-15T05:29:00;23.75;;;16.15;;
10335;SDS011;5213;53.548;9.930;2022-11-15T05:31:27;25.17;;;16.48;;
10335;SDS011;5213;53.548;9.930;2022-11-15T05:33:53;23.85;;;16.60;;
10335;SDS011;5213;53.548;9.930;2022-11-15T05:36:38;24.40;;;17.02;;
10335;SDS011;5213;53.548;9.930;2022-11-15T05:39:06;23.33;;;17.00;;
10335;SDS011;5213;53.548;9.930;2022-11-15T05:41:40;22.00;;;15.63;;
10335;SDS011;5213;53.548;9.930;2022-11-15T05:44:07;21.13;;;15.80;;
10335;SDS011;5213;53.548;9.930;2022-11-15T05:46:35;20.83;;;16.25;;
10335;SDS011;5213;53.548;9.930;2022-11-15T05:49:01;18.42;;;15.45;;
10335;SDS011;5213;53.548;9.930;2022-11-15T05:51:27;19.15;;;15.25;;
10335;SDS011;5213;53.548;9.930;2022-11-15T05:53:54;18.23;;;14.88;;
10335;SDS011;5213;53.548;9.930;2022-11-15T05:56:22;18.15;;;14.02;;
10335;SDS011;5213;53.548;9.930;2022-11-15T05:58:48;17.75;;;13.93;;
10335;SDS011;5213;53.548;9.930;2022-11-15T06:01:14;22.08;;;14.95;;
10335;SDS011;5213;53.548;9.930;2022-11-15T06:03:40;18.08;;;14.45;;
10335;SDS011;5213;53.548;9.930;2022-11-15T06:06:06;18.60;;;14.65;;
10335;SDS011;5213;53.548;9.930;2022-11-15T06:08:32;21.35;;;14.38;;
10335;SDS011;5213;53.548;9.930;2022-11-15T06:11:02;17.90;;;14.20;;
10335;SDS011;5213;53.548;9.930;2022-11-15T06:13:28;19.75;;;14.93;;
10335;SDS011;5213;53.548;9.930;2022-11-15T06:15:55;22.83;;;15.57;;
10335;SDS011;5213;53.548;9.930;2022-11-15T06:18:21;20.52;;;15.27;;
10335;SDS011;5213;53.548;9.930;2022-11-15T06:20:47;21.00;;;15.75;;
10335;SDS011;5213;53.548;9.930;2022-11-15T06:23:13;20.23;;;15.23;;
10335;SDS011;5213;53.548;9.930;2022-11-15T06:25:39;21.17;;;15.65;;
10335;SDS011;5213;53.548;9.930;2022-11-15T06:28:05;20.40;;;15.07;;
10335;SDS011;5213;53.548;9.930;2022-11-15T06:30:31;20.42;;;15.52;;
10335;SDS011;5213;53.548;9.930;2022-11-15T06:33:01;19.60;;;15.13;;
10335;SDS011;5213;53.548;9.930;2022-11-15T06:35:27;17.55;;;13.70;;
10335;SDS011;5213;53.548;9.930;2022-11-15T06:37:53;18.38;;;15.25;;
10335;SDS011;5213;53.548;9.930;2022-11-15T06:40:19;18.23;;;15.27;;
10335;SDS011;5213;53.548;9.930;2022-11-15T06:42:45;18.40;;;14.63;;
10335;SDS011;5213;53.548;9.930;2022-11-15T06:45:11;17.60;;;13.88;;
10335;SDS011;5213;53.548;9.930;2022-11-15T06:47:47;20.23;;;15.25;;
10335;SDS011;5213;53.548;9.930;2022-11-15T06:50:13;19.13;;;15.55;;
10335;SDS011;5213;53.548;9.930;2022-11-15T06:52:39;19.20;;;15.50;;
10335;SDS011;5213;53.548;9.930;2022-11-15T06:55:05;18.77;;;15.55;;
10335;SDS011;5213;53.548;9.930;2022-11-15T06:57:31;20.77;;;14.95;;
10335;SDS011;5213;53.548;9.930;2022-11-15T06:59:57;17.23;;;14.00;;
10335;SDS011;5213;53.548;9.930;2022-11-15T07:02:23;20.08;;;14.88;;
10335;SDS011;5213;53.548;9.930;2022-11-15T07:04:49;18.38;;;14.70;;
10335;SDS011;5213;53.548;9.930;2022-11-15T07:07:15;18.92;;;14.93;;
10335;SDS011;5213;53.548;9.930;2022-11-15T07:09:41;18.63;;;15.05;;
10335;SDS011;5213;53.548;9.930;2022-11-15T07:12:07;17.95;;;14.70;;
10335;SDS011;5213;53.548;9.930;2022-11-15T07:14:33;19.85;;;15.82;;
10335;SDS011;5213;53.548;9.930;2022-11-15T07:16:59;17.60;;;14.85;;
10335;SDS011;5213;53.548;9.930;2022-11-15T07:19:27;21.25;;;15.15;;
10335;SDS011;5213;53.548;9.930;2022-11-15T07:21:53;21.02;;;14.60;;
10335;SDS011;5213;53.548;9.930;2022-11-15T07:24:18;17.95;;;14.38;;
10335;SDS011;5213;53.548;9.930;2022-11-15T07:26:44;18.75;;;14.40;;
10335;SDS011;5213;53.548;9.930;2022-11-15T07:29:10;17.42;;;14.35;;
10335;SDS011;5213;53.548;9.930;2022-11-15T07:31:36;17.83;;;14.60;;
10335;SDS011;5213;53.548;9.930;2022-11-15T07:34:03;17.20;;;13.85;;
10335;SDS011;5213;53.548;9.930;2022-11-15T07:36:29;19.10;;;15.55;;
10335;SDS011;5213;53.548;9.930;2022-11-15T07:38:56;17.80;;;14.55;;
10335;SDS011;5213;53.548;9.930;2022-11-15T07:41:21;19.95;;;15.35;;
10335;SDS011;5213;53.548;9.930;2022-11-15T07:43:50;21.42;;;15.93;;
10335;SDS011;5213;53.548;9.930;2022-11-15T07:46:17;20.30;;;15.68;;
10335;SDS011;5213;53.548;9.930;2022-11-15T07:48:43;20.08;;;15.02;;
10335;SDS011;5213;53.548;9.930;2022-11-15T07:51:12;20.27;;;14.68;;
10335;SDS011;5213;53.548;9.930;2022-11-15T07:53:39;16.90;;;14.35;;
10335;SDS011;5213;53.548;9.930;2022-11-15T07:56:05;20.30;;;14.32;;
10335;SDS011;5213;53.548;9.930;2022-11-15T07:58:32;19.52;;;13.65;;
10335;SDS011;5213;53.548;9.930;2022-11-15T08:00:58;17.83;;;14.20;;
10335;SDS011;5213;53.548;9.930;2022-11-15T08:03:24;16.92;;;13.65;;
10335;SDS011;5213;53.548;9.930;2022-11-15T08:05:50;17.23;;;14.40;;
10335;SDS011;5213;53.548;9.930;2022-11-15T08:08:17;17.63;;;13.52;;
10335;SDS011;5213;53.548;9.930;2022-11-15T08:10:43;17.77;;;13.48;;
10335;SDS011;5213;53.548;9.930;2022-11-15T08:13:10;19.73;;;14.90;;
10335;SDS011;5213;53.548;9.930;2022-11-15T08:15:36;18.33;;;14.23;;
10335;SDS011;5213;53.548;9.930;2022-11-15T08:18:08;18.80;;;14.20;;
10335;SDS011;5213;53.548;9.930;2022-11-15T08:20:34;15.63;;;13.38;;
10335;SDS011;5213;53.548;9.930;2022-11-15T08:23:01;15.70;;;12.70;;
10335;SDS011;5213;53.548;9.930;2022-11-15T08:25:28;14.77;;;12.77;;
10335;SDS011;5213;53.548;9.930;2022-11-15T08:27:55;16.58;;;13.85;;
10335;SDS011;5213;53.548;9.930;2022-11-15T08:30:21;14.40;;;12.57;;
10335;SDS011;5213;53.548;9.930;2022-11-15T08:32:48;17.45;;;12.68;;
10335;SDS011;5213;53.548;9.930;2022-11-15T08:35:14;16.80;;;13.07;;
10335;SDS011;5213;53.548;9.930;2022-11-15T08:37:40;16.00;;;13.38;;
10335;SDS011;5213;53.548;9.930;2022-11-15T08:40:06;18.13;;;13.73;;
10335;SDS011;5213;53.548;9.930;2022-11-15T08:42:32;19.02;;;14.13;;
10335;SDS011;5213;53.548;9.930;2022-11-15T08:44:58;19.05;;;14.18;;
10335;SDS011;5213;53.548;9.930;2022-11-15T08:47:24;18.95;;;14.00;;
10335;SDS011;5213;53.548;9.930;2022-11-15T08:49:51;16.23;;;12.63;;
10335;SDS011;5213;53.548;9.930;2022-11-15T08:52:18;17.15;;;13.25;;
10335;SDS011;5213;53.548;9.930;2022-11-15T08:54:44;17.55;;;13.15;;
10335;SDS011;5213;53.548;9.930;2022-11-15T08:57:10;20.00;;;13.13;;
10335;SDS011;5213;53.548;9.930;2022-11-15T08:59:36;15.30;;;12.63;;
10335;SDS011;5213;53.548;9.930;2022-11-15T09:02:02;15.60;;;12.98;;
10335;SDS011;5213;53.548;9.930;2022-11-15T09:04:28;17.15;;;13.13;;
10335;SDS011;5213;53.548;9.930;2022-11-15T09:06:54;16.20;;;13.38;;
10335;SDS011;5213;53.548;9.930;2022-11-15T09:09:20;15.50;;;12.77;;
10335;SDS011;5213;53.548;9.930;2022-11-15T09:11:46;16.00;;;12.40;;
10335;SDS011;5213;53.548;9.930;2022-11-15T09:14:13;14.98;;;12.05;;
10335;SDS011;5213;53.548;9.930;2022-11-15T09:16:39;17.67;;;12.60;;
10335;SDS011;5213;53.548;9.930;2022-11-15T09:19:05;13.75;;;12.05;;
10335;SDS011;5213;53.548;9.930;2022-11-15T09:21:31;14.35;;;12.43;;
10335;SDS011;5213;53.548;9.930;2022-11-15T09:23:57;18.02;;;13.32;;
10335;SDS011;5213;53.548;9.930;2022-11-15T09:26:24;18.40;;;13.00;;
10335;SDS011;5213;53.548;9.930;2022-11-15T09:28:50;14.63;;;12.50;;
10335;SDS011;5213;53.548;9.930;2022-11-15T09:31:16;16.27;;;12.68;;
10335;SDS011;5213;53.548;9.930;2022-11-15T09:33:45;16.92;;;13.07;;
10335;SDS011;5213;53.548;9.930;2022-11-15T09:36:11;14.50;;;12.50;;
10335;SDS011;5213;53.548;9.930;2022-11-15T09:38:37;18.33;;;13.55;;
10335;SDS011;5213;53.548;9.930;2022-11-15T09:48:59;16.60;;;13.10;;
10335;SDS011;5213;53.548;9.930;2022-11-15T09:56:21;17.27;;;12.82;;
10335;SDS011;5213;53.548;9.930;2022-11-15T10:01:19;15.82;;;12.85;;
10335;SDS011;5213;53.548;9.930;2022-11-15T10:03:47;15.32;;;12.93;;
10335;SDS011;5213;53.548;9.930;2022-11-15T10:06:23;18.10;;;12.13;;
10335;SDS011;5213;53.548;9.930;2022-11-15T10:11:20;15.40;;;12.02;;
10335;SDS011;5213;53.548;9.930;2022-11-15T10:13:48;17.33;;;12.60;;
10335;SDS011;5213;53.548;9.930;2022-11-15T10:19:13;14.13;;;12.63;;
10335;SDS011;5213;53.548;9.930;2022-11-15T10:21:49;16.17;;;12.63;;
10335;SDS011;5213;53.548;9.930;2022-11-15T10:24:18;14.48;;;12.32;;
10335;SDS011;5213;53.548;9.930;2022-11-15T10:26:48;20.20;;;12.40;;
10335;SDS011;5213;53.548;9.930;2022-11-15T10:29:18;13.57;;;11.48;;
10335;SDS011;5213;53.548;9.930;2022-11-15T10:31:45;16.13;;;12.52;;
10335;SDS011;5213;53.548;9.930;2022-11-15T10:34:18;14.43;;;11.95;;
10335;SDS011;5213;53.548;9.930;2022-11-15T10:36:45;14.75;;;12.40;;
10335;SDS011;5213;53.548;9.930;2022-11-15T10:39:12;17.90;;;12.75;;
10335;SDS011;5213;53.548;9.930;2022-11-15T10:41:40;15.25;;;12.88;;
10335;SDS011;5213;53.548;9.930;2022-11-15T10:46:33;16.80;;;13.45;;
10335;SDS011;5213;53.548;9.930;2022-11-15T10:49:19;17.50;;;13.80;;
10335;SDS011;5213;53.548;9.930;2022-11-15T10:51:47;15.70;;;12.30;;
10335;SDS011;5213;53.548;9.930;2022-11-15T10:54:14;13.27;;;11.55;;
10335;SDS011;5213;53.548;9.930;2022-11-15T10:56:42;18.13;;;12.65;;
10335;SDS011;5213;53.548;9.930;2022-11-15T10:59:14;14.48;;;12.73;;
10335;SDS011;5213;53.548;9.930;2022-11-15T11:01:45;14.77;;;11.95;;
10335;SDS011;5213;53.548;9.930;2022-11-15T11:04:11;16.02;;;12.45;;
10335;SDS011;5213;53.548;9.930;2022-11-15T11:06:57;15.05;;;11.68;;
10335;SDS011;5213;53.548;9.930;2022-11-15T11:09:28;14.05;;;11.40;;
10335;SDS011;5213;53.548;9.930;2022-11-15T11:11:56;12.85;;;11.50;;
10335;SDS011;5213;53.548;9.930;2022-11-15T11:16:54;13.82;;;11.95;;
10335;SDS011;5213;53.548;9.930;2022-11-15T11:19:29;14.43;;;11.20;;
10335;SDS011;5213;53.548;9.930;2022-11-15T11:24:34;13.73;;;10.95;;
10335;SDS011;5213;53.548;9.930;2022-11-15T11:29:51;12.35;;;10.15;;
10335;SDS011;5213;53.548;9.930;2022-11-15T11:37:51;13.05;;;11.68;;
10335;SDS011;5213;53.548;9.930;2022-11-15T11:40:24;17.60;;;11.55;;
10335;SDS011;5213;53.548;9.930;2022-11-15T11:42:55;12.82;;;10.90;;
10335;SDS011;5213;53.548;9.930;2022-11-15T11:50:26;12.95;;;10.68;;
10335;SDS011;5213;53.548;9.930;2022-11-15T11:52:57;16.15;;;11.63;;
10335;SDS011;5213;53.548;9.930;2022-11-15T11:55:26;17.60;;;11.70;;
10335;SDS011;5213;53.548;9.930;2022-11-15T12:00:42;14.63;;;11.55;;
10335;SDS011;5213;53.548;9.930;2022-11-15T12:03:11;16.67;;;10.80;;
10335;SDS011;5213;53.548;9.930;2022-11-15T12:05:41;15.98;;;11.20;;
10335;SDS011;5213;53.548;9.930;2022-11-15T12:08:23;14.60;;;11.13;;
10335;SDS011;5213;53.548;9.930;2022-11-15T12:11:00;13.65;;;10.40;;
10335;SDS011;5213;53.548;9.930;2022-11-15T12:13:29;12.23;;;10.57;;
10335;SDS011;5213;53.548;9.930;2022-11-15T12:16:18;15.90;;;11.20;;
10335;SDS011;5213;53.548;9.930;2022-11-15T12:18:47;12.07;;;10.52;;
10335;SDS011;5213;53.548;9.930;2022-11-15T12:21:31;13.50;;;10.07;;
10335;SDS011;5213;53.548;9.930;2022-11-15T12:24:00;14.45;;;9.95;;
10335;SDS011;5213;53.548;9.930;2022-11-15T12:26:31;12.48;;;11.18;;
10335;SDS011;5213;53.548;9.930;2022-11-15T12:28:59;11.05;;;9.35;;
10335;SDS011;5213;53.548;9.930;2022-11-15T12:31:40;10.90;;;9.68;;
10335;SDS011;5213;53.548;9.930;2022-11-15T12:36:48;11.63;;;9.77;;
10335;SDS011;5213;53.548;9.930;2022-11-15T12:39:15;10.90;;;9.70;;
10335;SDS011;5213;53.548;9.930;2022-11-15T12:41:42;13.35;;;9.88;;
10335;SDS011;5213;53.548;9.930;2022-11-15T12:44:12;11.13;;;9.60;;
10335;SDS011;5213;53.548;9.930;2022-11-15T12:54:55;11.68;;;9.82;;
10335;SDS011;5213;53.548;9.930;2022-11-15T13:02:30;10.80;;;9.55;;
10335;SDS011;5213;53.548;9.930;2022-11-15T13:22:42;11.15;;;9.05;;
10335;SDS011;5213;53.548;9.930;2022-11-15T13:28:11;12.02;;;10.25;;
10335;SDS011;5213;53.548;9.930;2022-11-15T13:33:24;12.45;;;10.20;;
10335;SDS011;5213;53.548;9.930;2022-11-15T13:35:51;13.18;;;10.13;;
10335;SDS011;5213;53.548;9.930;2022-11-15T13:40:51;12.60;;;10.27;;
10335;SDS011;5213;53.548;9.930;2022-11-15T13:48:32;13.77;;;9.63;;
10335;SDS011;5213;53.548;9.930;2022-11-15T13:50:59;12.70;;;9.48;;
10335;SDS011;5213;53.548;9.930;2022-11-15T13:53:25;15.23;;;9.27;;
10335;SDS011;5213;53.548;9.930;2022-11-15T13:55:51;13.93;;;10.05;;
10335;SDS011;5213;53.548;9.930;2022-11-15T13:58:19;10.85;;;9.05;;
10335;SDS011;5213;53.548;9.930;2022-11-15T14:00:45;12.52;;;9.48;;
10335;SDS011;5213;53.548;9.930;2022-11-15T14:03:46;13.13;;;9.95;;
10335;SDS011;5213;53.548;9.930;2022-11-15T14:06:06;11.25;;;9.30;;
10335;SDS011;5213;53.548;9.930;2022-11-15T14:08:32;11.70;;;9.50;;
10335;SDS011;5213;53.548;9.930;2022-11-15T14:11:06;11.23;;;9.05;;
10335;SDS011;5213;53.548;9.930;2022-11-15T14:13:32;11.68;;;9.52;;
10335;SDS011;5213;53.548;9.930;2022-11-15T14:21:12;11.48;;;8.88;;
10335;SDS011;5213;53.548;9.930;2022-11-15T14:23:38;11.85;;;9.40;;
10335;SDS011;5213;53.548;9.930;2022-11-15T14:26:04;10.98;;;8.98;;
10335;SDS011;5213;53.548;9.930;2022-11-15T14:28:31;11.55;;;9.15;;
10335;SDS011;5213;53.548;9.930;2022-11-15T14:30:59;12.52;;;9.25;;
10335;SDS011;5213;53.548;9.930;2022-11-15T14:33:32;11.20;;;9.38;;
10335;SDS011;5213;53.548;9.930;2022-11-15T14:36:02;10.23;;;9.15;;
10335;SDS011;5213;53.548;9.930;2022-11-15T14:38:29;11.35;;;9.30;;
10335;SDS011;5213;53.548;9.930;2022-11-15T14:40:54;12.02;;;8.85;;
10335;SDS011;5213;53.548;9.930;2022-11-15T14:43:21;11.68;;;9.18;;
10335;SDS011;5213;53.548;9.930;2022-11-15T14:45:47;13.57;;;9.50;;
10335;SDS011;5213;53.548;9.930;2022-11-15T14:48:13;11.63;;;9.30;;
10335;SDS011;5213;53.548;9.930;2022-11-15T14:50:39;12.43;;;9.38;;
10335;SDS011;5213;53.548;9.930;2022-11-15T14:53:05;12.57;;;9.60;;
10335;SDS011;5213;53.548;9.930;2022-11-15T14:55:32;10.60;;;8.57;;
10335;SDS011;5213;53.548;9.930;2022-11-15T14:58:01;11.00;;;9.10;;
10335;SDS011;5213;53.548;9.930;2022-11-15T15:00:28;11.88;;;9.60;;
10335;SDS011;5213;53.548;9.930;2022-11-15T15:02:54;10.38;;;9.27;;
10335;SDS011;5213;53.548;9.930;2022-11-15T15:07:46;13.73;;;10.07;;
10335;SDS011;5213;53.548;9.930;2022-11-15T15:10:13;13.73;;;10.32;;
10335;SDS011;5213;53.548;9.930;2022-11-15T15:12:39;14.75;;;10.90;;
10335;SDS011;5213;53.548;9.930;2022-11-15T15:15:06;15.38;;;11.13;;
10335;SDS011;5213;53.548;9.930;2022-11-15T15:17:32;11.68;;;10.13;;
10335;SDS011;5213;53.548;9.930;2022-11-15T15:19:58;13.10;;;10.68;;
10335;SDS011;5213;53.548;9.930;2022-11-15T15:22:24;12.02;;;9.82;;
10335;SDS011;5213;53.548;9.930;2022-11-15T15:24:52;12.13;;;10.35;;
10335;SDS011;5213;53.548;9.930;2022-11-15T15:27:18;15.55;;;12.13;;
10335;SDS011;5213;53.548;9.930;2022-11-15T15:29:44;13.80;;;10.35;;
10335;SDS011;5213;53.548;9.930;2022-11-15T15:32:10;14.45;;;10.07;;
10335;SDS011;5213;53.548;9.930;2022-11-15T15:34:38;13.90;;;10.70;;
10335;SDS011;5213;53.548;9.930;2022-11-15T15:37:08;16.48;;;11.40;;
10335;SDS011;5213;53.548;9.930;2022-11-15T15:39:34;13.25;;;10.80;;
10335;SDS011;5213;53.548;9.930;2022-11-15T15:42:00;14.75;;;10.60;;
10335;SDS011;5213;53.548;9.930;2022-11-15T15:44:26;12.90;;;11.32;;
10335;SDS011;5213;53.548;9.930;2022-11-15T15:46:52;14.90;;;10.88;;
10335;SDS011;5213;53.548;9.930;2022-11-15T15:49:18;16.40;;;10.18;;
10335;SDS011;5213;53.548;9.930;2022-11-15T15:51:44;16.05;;;12.02;;
10335;SDS011;5213;53.548;9.930;2022-11-15T15:54:10;12.15;;;10.85;;
10335;SDS011;5213;53.548;9.930;2022-11-15T15:56:36;16.45;;;11.50;;
10335;SDS011;5213;53.548;9.930;2022-11-15T15:59:02;15.52;;;11.75;;
10335;SDS011;5213;53.548;9.930;2022-11-15T16:01:28;15.00;;;11.60;;
10335;SDS011;5213;53.548;9.930;2022-11-15T16:03:54;13.88;;;11.10;;
10335;SDS011;5213;53.548;9.930;2022-11-15T16:06:36;15.18;;;11.43;;
10335;SDS011;5213;53.548;9.930;2022-11-15T16:09:03;14.48;;;11.75;;
10335;SDS011;5213;53.548;9.930;2022-11-15T16:11:29;15.43;;;11.52;;
10335;SDS011;5213;53.548;9.930;2022-11-15T16:13:55;15.80;;;11.70;;
10335;SDS011;5213;53.548;9.930;2022-11-15T16:16:21;15.18;;;11.40;;
10335;SDS011;5213;53.548;9.930;2022-11-15T16:18:47;15.68;;;11.05;;
10335;SDS011;5213;53.548;9.930;2022-11-15T16:21:13;13.38;;;10.85;;
10335;SDS011;5213;53.548;9.930;2022-11-15T16:23:40;14.52;;;10.45;;
10335;SDS011;5213;53.548;9.930;2022-11-15T16:26:14;14.18;;;10.93;;
10335;SDS011;5213;53.548;9.930;2022-11-15T16:28:40;13.07;;;10.02;;
10335;SDS011;5213;53.548;9.930;2022-11-15T16:31:10;12.50;;;9.63;;
10335;SDS011;5213;53.548;9.930;2022-11-15T16:33:36;12.88;;;10.13;;
10335;SDS011;5213;53.548;9.930;2022-11-15T16:36:03;11.45;;;9.40;;
10335;SDS011;5213;53.548;9.930;2022-11-15T16:38:29;11.20;;;10.05;;
10335;SDS011;5213;53.548;9.930;2022-11-15T16:40:55;13.05;;;9.98;;